createdAt,value
2022-09-28T00:01:19.091Z,9.40
2022-09-28T00:03:47.830Z,9.40
2022-09-28T00:06:18.609Z,9.30
2022-09-28T00:08:45.737Z,9.30
2022-09-28T00:11:15.405Z,9.30
2022-09-28T00:13:43.247Z,9.30
2022-09-28T00:16:19.117Z,9.30
2022-09-28T00:18:46.800Z,9.50
2022-09-28T00:21:16.407Z,9.30
2022-09-28T00:24:02.794Z,9.60
2022-09-28T00:26:31.708Z,9.50
2022-09-28T00:29:00.692Z,9.50
2022-09-28T00:31:32.662Z,9.60
2022-09-28T00:34:01.560Z,9.60
2022-09-28T00:36:31.242Z,9.60
2022-09-28T00:38:58.910Z,9.60
2022-09-28T00:41:28.180Z,9.70
2022-09-28T00:44:35.992Z,9.70
2022-09-28T00:47:41.833Z,9.70
2022-09-28T00:50:26.787Z,9.70
2022-09-28T00:53:14.607Z,9.80
2022-09-28T00:55:54.675Z,9.80
2022-09-28T00:58:29.861Z,9.80
2022-09-28T01:01:00.719Z,9.80
2022-09-28T01:03:28.982Z,9.80
2022-09-28T01:05:59.537Z,9.70
2022-09-28T01:08:28.993Z,9.80
2022-09-28T01:10:57.744Z,10.00
2022-09-28T01:13:25.089Z,9.70
2022-09-28T01:16:13.995Z,9.90
2022-09-28T01:19:14.003Z,9.90
2022-09-28T01:22:11.615Z,9.90
2022-09-28T01:24:51.469Z,9.90
2022-09-28T01:27:42.354Z,9.80
2022-09-28T01:30:15.009Z,9.80
2022-09-28T01:33:08.551Z,9.80
2022-09-28T01:35:43.190Z,9.70
2022-09-28T01:38:19.614Z,9.80
2022-09-28T01:40:47.767Z,9.70
2022-09-28T01:43:22.275Z,9.80
2022-09-28T01:46:02.194Z,9.80
2022-09-28T01:48:38.914Z,9.80
2022-09-28T01:51:14.724Z,9.90
2022-09-28T01:53:47.317Z,9.90
2022-09-28T01:56:28.095Z,10.00
2022-09-28T01:59:17.331Z,9.90
2022-09-28T02:01:49.391Z,10.00
2022-09-28T02:04:41.001Z,10.00
2022-09-28T02:07:32.777Z,10.00
2022-09-28T02:10:09.585Z,9.90
2022-09-28T02:12:48.404Z,9.80
2022-09-28T02:15:31.741Z,9.80
2022-09-28T02:18:00.326Z,9.70
2022-09-28T02:20:29.114Z,9.70
2022-09-28T02:22:59.416Z,9.60
2022-09-28T02:25:41.666Z,9.50
2022-09-28T02:28:13.374Z,9.60
2022-09-28T02:30:42.158Z,9.70
2022-09-28T02:33:23.150Z,9.60
2022-09-28T02:35:50.417Z,9.60
2022-09-28T02:38:18.895Z,9.50
2022-09-28T02:41:04.339Z,9.70
2022-09-28T02:44:02.891Z,9.50
2022-09-28T02:46:46.219Z,9.50
2022-09-28T02:49:37.207Z,9.50
2022-09-28T02:52:22.844Z,9.50
2022-09-28T02:54:58.925Z,9.50
2022-09-28T02:58:03.475Z,9.50
2022-09-28T03:00:32.673Z,9.50
2022-09-28T03:03:11.559Z,9.70
2022-09-28T03:06:00.259Z,9.40
2022-09-28T03:08:44.878Z,9.40
2022-09-28T03:11:24.909Z,9.30
2022-09-28T03:13:52.889Z,9.20
2022-09-28T03:16:22.862Z,9.20
2022-09-28T03:18:49.931Z,9.10
2022-09-28T03:21:16.925Z,9.00
2022-09-28T03:23:43.830Z,9.10
2022-09-28T03:26:12.799Z,9.00
2022-09-28T03:28:41.212Z,8.90
2022-09-28T03:31:12.603Z,9.00
2022-09-28T03:33:40.463Z,9.00
2022-09-28T03:36:09.450Z,9.00
2022-09-28T03:38:41.193Z,9.00
2022-09-28T03:41:10.538Z,9.20
2022-09-28T03:43:40.590Z,9.20
2022-09-28T03:46:07.678Z,9.30
2022-09-28T03:48:40.198Z,9.20
2022-09-28T03:51:11.369Z,9.00
2022-09-28T03:53:39.537Z,9.10
2022-09-28T03:56:13.201Z,9.10
2022-09-28T03:58:41.255Z,9.00
2022-09-28T04:01:16.544Z,8.80
2022-09-28T04:03:45.972Z,8.90
2022-09-28T04:06:13.759Z,8.90
2022-09-28T04:08:41.675Z,8.80
2022-09-28T04:11:09.134Z,8.80
2022-09-28T04:13:37.179Z,8.80
2022-09-28T04:16:05.908Z,8.70
2022-09-28T04:18:35.111Z,8.70
2022-09-28T04:21:17.193Z,8.70
2022-09-28T04:24:04.505Z,8.70
2022-09-28T04:26:31.450Z,8.60
2022-09-28T04:29:17.974Z,8.60
2022-09-28T04:31:52.164Z,8.60
2022-09-28T04:34:23.210Z,8.60
2022-09-28T04:36:51.119Z,8.60
2022-09-28T04:39:19.484Z,8.70
2022-09-28T04:41:52.987Z,8.60
2022-09-28T04:44:20.194Z,8.60
2022-09-28T04:46:49.691Z,8.60
2022-09-28T04:49:28.467Z,8.60
2022-09-28T04:52:00.592Z,8.60
2022-09-28T04:54:28.307Z,8.60
2022-09-28T04:56:57.027Z,8.50
2022-09-28T04:59:26.586Z,8.50
2022-09-28T05:01:54.002Z,8.50
2022-09-28T05:04:49.622Z,8.50
2022-09-28T05:07:35.475Z,8.50
2022-09-28T05:10:05.507Z,8.50
2022-09-28T05:12:33.127Z,8.50
2022-09-28T05:15:00.686Z,8.40
2022-09-28T05:17:28.215Z,8.40
2022-09-28T05:20:00.631Z,8.40
2022-09-28T05:22:27.454Z,8.40
2022-09-28T05:24:55.338Z,8.40
2022-09-28T05:27:26.369Z,8.40
2022-09-28T05:30:03.671Z,8.40
2022-09-28T05:32:30.437Z,8.40
2022-09-28T05:35:05.767Z,8.50
2022-09-28T05:37:41.102Z,8.40
2022-09-28T05:40:08.368Z,8.40
2022-09-28T05:42:35.374Z,8.30
2022-09-28T05:45:03.430Z,8.50
2022-09-28T05:47:41.146Z,8.60
2022-09-28T05:50:11.708Z,8.70
2022-09-28T05:52:39.028Z,8.70
2022-09-28T05:55:07.621Z,8.60
2022-09-28T05:57:37.421Z,8.60
2022-09-28T06:00:08.868Z,8.50
2022-09-28T06:02:58.037Z,8.60
2022-09-28T06:05:25.083Z,8.60
2022-09-28T06:07:52.871Z,8.60
2022-09-28T06:10:20.717Z,8.60
2022-09-28T06:12:48.725Z,8.60
2022-09-28T06:15:17.315Z,8.70
2022-09-28T06:17:45.760Z,8.70
2022-09-28T06:20:47.999Z,8.70
2022-09-28T06:23:16.329Z,8.70
2022-09-28T06:25:45.507Z,8.70
2022-09-28T06:28:14.161Z,8.80
2022-09-28T06:30:43.652Z,8.70
2022-09-28T06:33:14.961Z,8.80
2022-09-28T06:35:42.281Z,8.80
2022-09-28T06:38:09.678Z,8.80
2022-09-28T06:40:38.897Z,8.80
2022-09-28T06:43:15.347Z,8.90
2022-09-28T06:46:02.463Z,8.90
2022-09-28T06:49:06.145Z,9.00
2022-09-28T06:52:00.354Z,9.10
2022-09-28T06:54:45.757Z,9.20
2022-09-28T06:57:35.831Z,9.30
2022-09-28T07:00:02.723Z,9.30
2022-09-28T07:02:31.166Z,9.40
2022-09-28T07:05:27.333Z,9.50
2022-09-28T07:08:24.495Z,9.50
2022-09-28T07:11:07.162Z,9.70
2022-09-28T07:13:51.267Z,9.80
2022-09-28T07:16:26.543Z,9.90
2022-09-28T07:18:55.099Z,10.00
2022-09-28T07:21:29.343Z,10.10
2022-09-28T07:23:57.300Z,10.10
2022-09-28T07:26:25.530Z,10.30
2022-09-28T07:29:21.185Z,10.40
2022-09-28T07:32:12.879Z,10.50
2022-09-28T07:34:59.106Z,10.60
2022-09-28T07:37:42.759Z,10.80
2022-09-28T07:40:28.762Z,10.80
2022-09-28T07:42:55.943Z,10.90
2022-09-28T07:45:24.438Z,11.10
2022-09-28T07:47:55.918Z,11.30
2022-09-28T07:50:52.209Z,11.50
2022-09-28T07:53:38.594Z,11.80
2022-09-28T07:56:25.300Z,11.90
2022-09-28T07:59:01.124Z,11.90
2022-09-28T08:01:39.958Z,11.90
2022-09-28T08:04:09.185Z,12.00
2022-09-28T08:06:40.387Z,12.10
2022-09-28T08:09:08.424Z,12.10
2022-09-28T08:11:55.065Z,12.00
2022-09-28T08:14:41.324Z,11.90
2022-09-28T08:17:16.783Z,11.90
2022-09-28T08:20:04.979Z,12.00
2022-09-28T08:22:32.229Z,12.10
2022-09-28T08:25:00.255Z,12.20
2022-09-28T08:27:27.128Z,12.50
2022-09-28T08:29:54.079Z,12.70
2022-09-28T08:32:39.563Z,12.90
2022-09-28T08:35:26.209Z,12.90
2022-09-28T08:38:13.898Z,12.90
2022-09-28T08:41:24.053Z,13.00
2022-09-28T08:44:13.668Z,13.10
2022-09-28T08:47:04.082Z,13.30
2022-09-28T08:49:50.099Z,13.50
2022-09-28T08:52:40.624Z,13.70
2022-09-28T08:55:33.535Z,13.90
2022-09-28T08:58:15.119Z,14.10
2022-09-28T09:00:47.385Z,14.00
2022-09-28T09:03:18.033Z,13.90
2022-09-28T09:06:18.633Z,13.90
2022-09-28T09:08:50.843Z,14.20
2022-09-28T09:11:51.624Z,14.50
2022-09-28T09:14:43.485Z,14.90
2022-09-28T09:17:25.380Z,15.30
2022-09-28T09:20:54.565Z,15.30
2022-09-28T09:23:57.471Z,15.30
2022-09-28T09:26:41.338Z,15.10
2022-09-28T09:29:29.331Z,15.10
2022-09-28T09:32:25.501Z,15.50
2022-09-28T09:35:01.302Z,15.80
2022-09-28T09:38:38.789Z,16.00
2022-09-28T09:41:55.554Z,16.10
2022-09-28T09:44:52.682Z,16.20
2022-09-28T09:47:58.453Z,16.40
2022-09-28T09:50:44.725Z,16.60
2022-09-28T09:53:23.606Z,16.90
2022-09-28T09:55:57.209Z,17.10
2022-09-28T09:58:42.451Z,17.30
2022-09-28T10:01:27.296Z,17.20
2022-09-28T10:04:44.410Z,16.90
2022-09-28T10:07:25.486Z,16.70
2022-09-28T10:09:56.962Z,16.50
2022-09-28T10:12:42.327Z,16.60
2022-09-28T10:15:14.957Z,16.70
2022-09-28T10:17:55.559Z,16.60
2022-09-28T10:20:45.270Z,16.40
2022-09-28T10:23:27.003Z,16.30
2022-09-28T10:25:59.432Z,16.00
2022-09-28T10:28:51.954Z,15.90
2022-09-28T10:31:35.468Z,16.00
2022-09-28T10:34:04.769Z,16.00
2022-09-28T10:36:38.289Z,16.10
2022-09-28T10:39:06.358Z,16.30
2022-09-28T10:41:33.498Z,15.90
2022-09-28T10:44:13.244Z,15.70
2022-09-28T10:47:07.883Z,15.50
2022-09-28T10:49:44.397Z,15.30
2022-09-28T10:52:43.013Z,15.30
2022-09-28T10:55:29.297Z,15.60
2022-09-28T10:57:57.299Z,15.70
2022-09-28T11:00:41.952Z,15.80
2022-09-28T11:03:32.693Z,15.90
2022-09-28T11:06:09.648Z,15.90
2022-09-28T11:08:41.558Z,15.90
2022-09-28T11:11:13.743Z,15.70
2022-09-28T11:13:48.989Z,15.50
2022-09-28T11:16:26.237Z,15.40
2022-09-28T11:18:55.103Z,15.40
2022-09-28T11:21:24.993Z,15.30
2022-09-28T11:24:27.068Z,15.50
2022-09-28T11:27:01.704Z,15.50
2022-09-28T11:29:43.102Z,15.60
2022-09-28T11:32:43.591Z,15.70
2022-09-28T11:35:35.700Z,15.70
2022-09-28T11:38:41.858Z,15.80
2022-09-28T11:41:46.305Z,15.90
2022-09-28T11:44:33.361Z,16.00
2022-09-28T11:47:33.168Z,16.00
2022-09-28T11:50:39.009Z,16.00
2022-09-28T11:53:34.911Z,16.10
2022-09-28T11:56:10.967Z,16.10
2022-09-28T11:58:46.354Z,16.00
2022-09-28T12:01:43.782Z,16.10
2022-09-28T12:04:41.197Z,16.30
2022-09-28T12:07:23.241Z,16.40
2022-09-28T12:10:10.191Z,16.40
2022-09-28T12:13:05.863Z,16.50
2022-09-28T12:16:27.316Z,16.50
2022-09-28T12:19:19.521Z,16.60
2022-09-28T12:21:59.773Z,16.70
2022-09-28T12:24:39.239Z,16.60
2022-09-28T12:27:22.918Z,16.40
2022-09-28T12:30:13.100Z,16.10
2022-09-28T12:32:49.090Z,15.70
2022-09-28T12:35:35.885Z,15.50
2022-09-28T12:38:40.234Z,15.30
2022-09-28T12:41:35.333Z,15.10
2022-09-28T12:44:32.674Z,15.00
2022-09-28T12:47:05.515Z,14.90
2022-09-28T12:53:07.342Z,14.90
2022-09-28T12:55:36.844Z,14.90
2022-09-28T12:58:23.426Z,15.00
2022-09-28T13:01:19.237Z,15.10
2022-09-28T13:04:13.307Z,15.30
2022-09-28T13:06:47.378Z,15.70
2022-09-28T13:09:22.379Z,16.10
2022-09-28T13:12:04.387Z,16.30
2022-09-28T13:14:49.505Z,16.50
2022-09-28T13:17:40.558Z,16.70
2022-09-28T13:20:45.648Z,16.90
2022-09-28T13:23:27.377Z,17.00
2022-09-28T13:26:01.302Z,16.90
2022-09-28T13:28:29.747Z,16.60
2022-09-28T13:33:36.695Z,16.00
2022-09-28T13:36:26.105Z,15.90
2022-09-28T13:38:54.127Z,15.70
2022-09-28T13:41:36.531Z,15.50
2022-09-28T13:44:12.523Z,15.40
2022-09-28T13:47:13.035Z,15.30
2022-09-28T13:49:52.487Z,15.30
2022-09-28T13:52:40.239Z,15.20
2022-09-28T13:55:13.002Z,15.30
2022-09-28T13:57:40.881Z,15.70
2022-09-28T14:00:23.021Z,16.40
2022-09-28T14:03:44.911Z,16.80
2022-09-28T14:06:24.407Z,17.10
2022-09-28T14:09:13.100Z,18.40
2022-09-28T14:11:56.399Z,19.30
2022-09-28T14:14:29.068Z,19.90
2022-09-28T14:17:23.415Z,20.80
2022-09-28T14:20:09.238Z,21.10
2022-09-28T14:22:47.818Z,21.50
2022-09-28T14:25:24.419Z,22.10
2022-09-28T14:28:01.197Z,22.40
2022-09-28T14:30:35.863Z,22.50
2022-09-28T14:33:21.750Z,22.10
2022-09-28T14:35:48.417Z,22.30
2022-09-28T14:38:38.137Z,22.70
2022-09-28T14:41:17.596Z,22.90
2022-09-28T14:43:44.312Z,23.00
2022-09-28T14:46:11.316Z,22.80
2022-09-28T14:48:54.359Z,22.50
2022-09-28T14:51:27.380Z,21.40
2022-09-28T14:54:02.973Z,21.20
2022-09-28T14:56:34.042Z,21.10
2022-09-28T14:59:01.407Z,21.40
2022-09-28T15:01:29.358Z,21.50
2022-09-28T15:04:01.440Z,21.20
2022-09-28T15:06:48.146Z,20.30
2022-09-28T15:09:32.521Z,19.60
2022-09-28T15:12:18.318Z,19.40
2022-09-28T15:15:06.401Z,19.30
2022-09-28T15:17:39.949Z,18.70
2022-09-28T15:20:10.920Z,18.70
2022-09-28T15:22:44.831Z,19.80
2022-09-28T15:25:19.901Z,21.10
2022-09-28T15:27:53.810Z,21.10
2022-09-28T15:30:22.343Z,20.00
2022-09-28T15:32:50.097Z,19.10
2022-09-28T15:35:22.530Z,18.60
2022-09-28T15:37:53.153Z,18.10
2022-09-28T15:40:27.900Z,17.80
2022-09-28T15:42:59.076Z,18.60
2022-09-28T15:45:37.844Z,18.80
2022-09-28T15:48:19.820Z,18.40
2022-09-28T15:51:21.580Z,17.70
2022-09-28T15:54:14.203Z,17.30
2022-09-28T15:56:53.497Z,16.90
2022-09-28T15:59:32.002Z,16.60
2022-09-28T16:02:08.045Z,16.30
2022-09-28T16:04:39.944Z,16.10
2022-09-28T16:07:11.693Z,15.90
2022-09-28T16:10:19.673Z,15.90
2022-09-28T16:12:52.528Z,15.70
2022-09-28T16:15:26.938Z,15.60
2022-09-28T16:18:01.335Z,15.30
2022-09-28T16:20:31.959Z,15.10
2022-09-28T16:23:05.944Z,15.00
2022-09-28T16:25:37.048Z,14.90
2022-09-28T16:28:05.558Z,14.70
2022-09-28T16:30:34.514Z,14.80
2022-09-28T16:33:25.783Z,14.60
2022-09-28T16:35:52.989Z,14.60
2022-09-28T16:38:20.261Z,14.50
2022-09-28T16:40:54.760Z,14.50
2022-09-28T16:43:30.939Z,14.40
2022-09-28T16:46:03.718Z,14.30
2022-09-28T16:48:32.479Z,14.30
2022-09-28T16:50:59.294Z,14.30
2022-09-28T16:53:46.078Z,14.10
2022-09-28T16:56:13.473Z,14.00
2022-09-28T16:58:42.342Z,14.10
2022-09-28T17:01:11.923Z,14.00
2022-09-28T17:03:44.361Z,13.90
2022-09-28T17:06:12.764Z,13.70
2022-09-28T17:08:39.819Z,13.80
2022-09-28T17:11:17.002Z,13.80
2022-09-28T17:13:47.135Z,13.70
2022-09-28T17:16:32.223Z,13.60
2022-09-28T17:19:19.794Z,13.50
2022-09-28T17:21:47.001Z,13.30
2022-09-28T17:24:14.292Z,13.20
2022-09-28T17:26:44.304Z,13.10
2022-09-28T17:29:14.476Z,13.10
2022-09-28T17:31:45.874Z,13.00
2022-09-28T17:34:15.937Z,12.80
2022-09-28T17:36:43.534Z,13.00
2022-09-28T17:39:15.603Z,13.00
2022-09-28T17:41:42.449Z,12.90
2022-09-28T17:44:09.327Z,12.90
2022-09-28T17:46:47.297Z,12.90
2022-09-28T17:49:14.975Z,12.90
2022-09-28T17:51:41.769Z,12.90
2022-09-28T17:54:08.843Z,12.80
2022-09-28T17:56:36.390Z,12.80
2022-09-28T17:59:07.707Z,12.80
2022-09-28T18:01:38.438Z,12.70
2022-09-28T18:04:07.966Z,12.60
2022-09-28T18:06:36.920Z,12.60
2022-09-28T18:09:05.045Z,12.60
2022-09-28T18:11:33.344Z,12.60
2022-09-28T18:14:00.751Z,12.60
2022-09-28T18:16:28.644Z,12.60
2022-09-28T18:18:55.774Z,12.30
2022-09-28T18:21:22.522Z,12.30
2022-09-28T18:23:49.309Z,12.20
2022-09-28T18:26:18.862Z,12.20
2022-09-28T18:28:46.336Z,12.00
2022-09-28T18:31:14.681Z,12.00
2022-09-28T18:33:41.707Z,11.90
2022-09-28T18:36:08.613Z,11.90
2022-09-28T18:38:36.113Z,12.00
2022-09-28T18:41:10.871Z,11.90
2022-09-28T18:43:37.780Z,11.90
2022-09-28T18:46:09.309Z,11.80
2022-09-28T18:48:37.712Z,11.80
2022-09-28T18:51:09.383Z,11.80
2022-09-28T18:53:36.795Z,11.70
2022-09-28T18:56:12.042Z,11.70
2022-09-28T18:58:40.349Z,11.60
2022-09-28T19:01:31.557Z,11.60
2022-09-28T19:04:00.279Z,11.60
2022-09-28T19:06:27.362Z,11.60
2022-09-28T19:08:55.579Z,11.50
2022-09-28T19:11:23.095Z,11.50
2022-09-28T19:13:50.329Z,11.40
2022-09-28T19:16:20.478Z,11.40
2022-09-28T19:18:47.942Z,11.30
2022-09-28T19:21:15.525Z,11.40
2022-09-28T19:23:49.023Z,11.20
2022-09-28T19:26:22.677Z,11.20
2022-09-28T19:28:50.222Z,11.20
2022-09-28T19:31:19.778Z,11.20
2022-09-28T19:33:47.038Z,11.10
2022-09-28T19:36:19.302Z,11.10
2022-09-28T19:38:46.364Z,11.10
2022-09-28T19:41:39.389Z,10.90
2022-09-28T19:44:30.894Z,11.10
2022-09-28T19:47:07.283Z,11.10
2022-09-28T19:49:37.102Z,11.20
2022-09-28T19:52:15.331Z,11.10
2022-09-28T19:54:56.645Z,11.00
2022-09-28T19:57:30.021Z,11.00
2022-09-28T20:00:01.967Z,10.90
2022-09-28T20:02:37.021Z,10.90
2022-09-28T20:05:05.719Z,10.80
2022-09-28T20:07:34.673Z,10.80
2022-09-28T20:10:01.830Z,10.70
2022-09-28T20:12:32.229Z,10.70
2022-09-28T20:15:00.488Z,10.70
2022-09-28T20:17:29.482Z,10.70
2022-09-28T20:19:58.617Z,10.70
2022-09-28T20:22:25.415Z,10.60
2022-09-28T20:24:52.207Z,10.60
2022-09-28T20:27:24.257Z,10.50
2022-09-28T20:29:53.625Z,10.60
2022-09-28T20:32:20.436Z,10.60
2022-09-28T20:34:49.752Z,10.50
2022-09-28T20:37:17.871Z,10.60
2022-09-28T20:39:45.327Z,10.60
2022-09-28T20:42:15.441Z,10.60
2022-09-28T20:44:43.648Z,10.60
2022-09-28T20:47:12.593Z,10.50
2022-09-28T20:49:39.416Z,10.50
2022-09-28T20:52:06.169Z,10.40
2022-09-28T20:54:33.334Z,10.40
2022-09-28T20:57:00.371Z,10.40
2022-09-28T20:59:27.683Z,10.30
2022-09-28T21:01:54.531Z,10.30
2022-09-28T21:04:23.635Z,10.30
2022-09-28T21:06:50.318Z,10.30
2022-09-28T21:09:16.990Z,10.30
2022-09-28T21:11:46.566Z,10.30
2022-09-28T21:14:13.296Z,10.30
2022-09-28T21:16:41.405Z,10.30
2022-09-28T21:19:09.330Z,10.20
2022-09-28T21:21:36.412Z,10.20
2022-09-28T21:24:03.649Z,10.20
2022-09-28T21:26:31.428Z,10.20
2022-09-28T21:29:03.819Z,10.20
2022-09-28T21:31:39.604Z,10.20
2022-09-28T21:34:07.375Z,10.30
2022-09-28T21:36:34.613Z,10.10
2022-09-28T21:39:08.270Z,10.00
2022-09-28T21:41:36.998Z,10.00
2022-09-28T21:44:04.157Z,10.00
2022-09-28T21:46:34.294Z,10.00
2022-09-28T21:49:02.664Z,10.00
2022-09-28T21:51:29.781Z,10.00
2022-09-28T21:53:56.816Z,9.90
2022-09-28T21:56:24.102Z,9.90
2022-09-28T21:58:51.047Z,9.90
2022-09-28T22:01:20.870Z,9.80
2022-09-28T22:03:53.702Z,9.70
2022-09-28T22:06:22.919Z,9.80
2022-09-28T22:08:50.841Z,9.80
2022-09-28T22:11:21.445Z,9.80
2022-09-28T22:13:51.050Z,9.80
2022-09-28T22:16:20.510Z,9.80
2022-09-28T22:18:47.757Z,9.70
2022-09-28T22:21:27.379Z,9.70
2022-09-28T22:23:58.007Z,9.70
2022-09-28T22:26:26.319Z,9.70
2022-09-28T22:28:57.378Z,9.70
2022-09-28T22:31:28.722Z,9.70
2022-09-28T22:33:55.932Z,9.70
2022-09-28T22:36:23.460Z,9.70
2022-09-28T22:38:50.695Z,9.60
2022-09-28T22:41:20.815Z,9.60
2022-09-28T22:43:50.133Z,9.50
2022-09-28T22:46:23.802Z,9.90
2022-09-28T22:48:59.263Z,9.60
2022-09-28T22:51:29.498Z,9.60
2022-09-28T22:53:57.184Z,9.50
2022-09-28T22:56:25.426Z,9.50
2022-09-28T22:58:57.365Z,9.50
2022-09-28T23:01:27.172Z,9.50
2022-09-28T23:03:56.713Z,9.50
2022-09-28T23:06:26.435Z,9.40
2022-09-28T23:08:56.916Z,9.40
2022-09-28T23:11:24.219Z,9.30
2022-09-28T23:13:56.042Z,9.30
2022-09-28T23:16:25.477Z,9.30
2022-09-28T23:18:53.935Z,9.30
2022-09-28T23:21:25.806Z,9.30
2022-09-28T23:23:58.808Z,9.30
2022-09-28T23:26:29.368Z,9.20
2022-09-28T23:28:57.379Z,9.30
2022-09-28T23:31:27.839Z,9.20
2022-09-28T23:34:04.885Z,9.20
2022-09-28T23:36:41.596Z,9.20
2022-09-28T23:39:09.945Z,9.20
2022-09-28T23:41:40.264Z,9.10
2022-09-28T23:44:08.194Z,9.20
2022-09-28T23:46:35.297Z,9.20
2022-09-28T23:49:02.486Z,9.20
2022-09-28T23:51:31.865Z,9.20
2022-09-28T23:53:59.075Z,9.10
2022-09-28T23:56:26.471Z,9.10
2022-09-28T23:58:53.235Z,9.10
